sensor_id;sensor_type;location;lat;lon;timestamp;pressure;altitude;pressure_sealevel;temperature;humidity
11936;BME280;6027;48.576;9.180;2023-05-01T00:02:09;96810.34;;;12.09;76.40
11936;BME280;6027;48.576;9.180;2023-05-01T00:04:35;96800.56;;;12.10;76.43
11936;BME280;6027;48.576;9.180;2023-05-01T00:07:01;96788.13;;;12.17;77.07
11936;BME280;6027;48.576;9.180;2023-05-01T00:09:27;96775.03;;;12.09;76.50
11936;BME280;6027;48.576;9.180;2023-05-01T00:11:52;96781.34;;;12.08;75.72
11936;BME280;6027;48.576;9.180;2023-05-01T00:14:18;96783.84;;;12.16;75.19
11936;BME280;6027;48.576;9.180;2023-05-01T00:16:43;96769.66;;;12.02;75.74
11936;BME280;6027;48.576;9.180;2023-05-01T00:19:10;96767.44;;;12.06;76.02
11936;BME280;6027;48.576;9.180;2023-05-01T00:21:36;96765.63;;;12.06;75.83
11936;BME280;6027;48.576;9.180;2023-05-01T00:24:02;96765.63;;;12.06;76.29
11936;BME280;6027;48.576;9.180;2023-05-01T00:26:27;96759.50;;;12.06;75.82
11936;BME280;6027;48.576;9.180;2023-05-01T00:28:56;96759.63;;;11.98;75.36
11936;BME280;6027;48.576;9.180;2023-05-01T00:31:25;96759.63;;;11.98;75.78
11936;BME280;6027;48.576;9.180;2023-05-01T00:33:50;96758.03;;;12.03;76.13
11936;BME280;6027;48.576;9.180;2023-05-01T00:36:16;96754.28;;;11.91;76.32
11936;BME280;6027;48.576;9.180;2023-05-01T00:38:41;96754.75;;;12.01;75.98
11936;BME280;6027;48.576;9.180;2023-05-01T00:41:07;96754.09;;;11.93;76.91
11936;BME280;6027;48.576;9.180;2023-05-01T00:43:32;96753.41;;;11.84;77.71
11936;BME280;6027;48.576;9.180;2023-05-01T00:45:58;96750.19;;;11.89;77.48
11936;BME280;6027;48.576;9.180;2023-05-01T00:48:23;96750.19;;;11.89;77.66
11936;BME280;6027;48.576;9.180;2023-05-01T00:50:50;96737.97;;;11.94;77.35
11936;BME280;6027;48.576;9.180;2023-05-01T00:53:16;96746.78;;;12.01;78.02
11936;BME280;6027;48.576;9.180;2023-05-01T00:55:44;96753.50;;;11.97;78.21
11936;BME280;6027;48.576;9.180;2023-05-01T00:58:10;96746.13;;;11.93;77.34
11936;BME280;6027;48.576;9.180;2023-05-01T01:00:38;96740.84;;;11.93;77.43
11936;BME280;6027;48.576;9.180;2023-05-01T01:03:04;96739.50;;;11.82;78.17
11936;BME280;6027;48.576;9.180;2023-05-01T01:05:31;96735.91;;;11.90;78.46
11936;BME280;6027;48.576;9.180;2023-05-01T01:08:23;96729.34;;;11.86;77.34
11936;BME280;6027;48.576;9.180;2023-05-01T01:13:59;96728.28;;;11.80;78.63
11936;BME280;6027;48.576;9.180;2023-05-01T01:16:40;96720.88;;;11.75;78.58
11936;BME280;6027;48.576;9.180;2023-05-01T01:22:14;96718.53;;;11.87;78.29
11936;BME280;6027;48.576;9.180;2023-05-01T01:30:40;96710.09;;;11.77;78.08
11936;BME280;6027;48.576;9.180;2023-05-01T01:35:42;96711.25;;;11.74;78.17
11936;BME280;6027;48.576;9.180;2023-05-01T01:38:21;96710.91;;;11.77;77.89
11936;BME280;6027;48.576;9.180;2023-05-01T01:41:07;96705.34;;;11.72;78.38
11936;BME280;6027;48.576;9.180;2023-05-01T01:43:39;96707.00;;;11.73;77.90
11936;BME280;6027;48.576;9.180;2023-05-01T01:46:06;96708.25;;;11.77;77.94
11936;BME280;6027;48.576;9.180;2023-05-01T01:48:35;96705.81;;;11.76;77.84
11936;BME280;6027;48.576;9.180;2023-05-01T01:51:07;96701.94;;;11.79;77.83
11936;BME280;6027;48.576;9.180;2023-05-01T01:53:35;96696.59;;;11.72;78.38
11936;BME280;6027;48.576;9.180;2023-05-01T01:56:03;96694.53;;;11.74;78.33
11936;BME280;6027;48.576;9.180;2023-05-01T01:58:31;96692.47;;;11.69;78.42
11936;BME280;6027;48.576;9.180;2023-05-01T02:01:00;96690.03;;;11.74;77.93
11936;BME280;6027;48.576;9.180;2023-05-01T02:03:26;96692.34;;;11.77;77.85
11936;BME280;6027;48.576;9.180;2023-05-01T02:05:53;96695.31;;;11.68;78.82
11936;BME280;6027;48.576;9.180;2023-05-01T02:08:19;96682.69;;;11.70;79.13
11936;BME280;6027;48.576;9.180;2023-05-01T02:10:46;96681.69;;;11.71;79.37
11936;BME280;6027;48.576;9.180;2023-05-01T02:13:12;96680.09;;;11.76;78.01
11936;BME280;6027;48.576;9.180;2023-05-01T02:15:39;96673.28;;;11.67;78.61
11936;BME280;6027;48.576;9.180;2023-05-01T02:18:05;96673.72;;;11.71;78.63
11936;BME280;6027;48.576;9.180;2023-05-01T02:20:32;96678.63;;;11.74;78.55
11936;BME280;6027;48.576;9.180;2023-05-01T02:22:58;96673.66;;;11.64;78.50
11936;BME280;6027;48.576;9.180;2023-05-01T02:25:25;96676.75;;;11.68;78.16
11936;BME280;6027;48.576;9.180;2023-05-01T02:27:56;96677.72;;;11.60;79.79
11936;BME280;6027;48.576;9.180;2023-05-01T02:30:24;96673.88;;;11.63;79.34
11936;BME280;6027;48.576;9.180;2023-05-01T02:32:50;96667.53;;;11.64;79.54
11936;BME280;6027;48.576;9.180;2023-05-01T02:35:15;96669.19;;;11.65;79.19
11936;BME280;6027;48.576;9.180;2023-05-01T02:37:42;96670.19;;;11.64;79.13
11936;BME280;6027;48.576;9.180;2023-05-01T02:40:11;96669.56;;;11.62;79.69
11936;BME280;6027;48.576;9.180;2023-05-01T02:42:38;96668.56;;;11.63;79.99
11936;BME280;6027;48.576;9.180;2023-05-01T02:45:09;96666.47;;;11.58;80.29
11936;BME280;6027;48.576;9.180;2023-05-01T02:47:38;96668.75;;;11.61;80.32
11936;BME280;6027;48.576;9.180;2023-05-01T02:50:07;96670.34;;;11.56;79.92
11936;BME280;6027;48.576;9.180;2023-05-01T02:52:33;96666.09;;;11.61;80.80
11936;BME280;6027;48.576;9.180;2023-05-01T02:54:59;96673.19;;;11.54;79.98
11936;BME280;6027;48.576;9.180;2023-05-01T02:57:25;96658.53;;;11.58;79.49
11936;BME280;6027;48.576;9.180;2023-05-01T02:59:50;96661.19;;;11.58;79.28
11936;BME280;6027;48.576;9.180;2023-05-01T03:02:16;96658.09;;;11.55;79.35
11936;BME280;6027;48.576;9.180;2023-05-01T03:05:02;96657.19;;;11.41;80.20
11936;BME280;6027;48.576;9.180;2023-05-01T03:07:40;96650.94;;;11.49;80.12
11936;BME280;6027;48.576;9.180;2023-05-01T03:10:26;96661.41;;;11.35;81.08
11936;BME280;6027;48.576;9.180;2023-05-01T03:13:11;96653.53;;;11.42;82.16
11936;BME280;6027;48.576;9.180;2023-05-01T03:15:52;96652.13;;;11.46;81.70
11936;BME280;6027;48.576;9.180;2023-05-01T03:18:17;96649.38;;;11.33;82.55
11936;BME280;6027;48.576;9.180;2023-05-01T03:20:52;96629.75;;;11.27;82.56
11936;BME280;6027;48.576;9.180;2023-05-01T03:23:18;96648.59;;;11.39;83.80
11936;BME280;6027;48.576;9.180;2023-05-01T03:25:44;96649.84;;;11.43;82.80
11936;BME280;6027;48.576;9.180;2023-05-01T03:28:09;96650.81;;;11.35;82.66
11936;BME280;6027;48.576;9.180;2023-05-01T03:30:35;96641.28;;;11.41;83.34
11936;BME280;6027;48.576;9.180;2023-05-01T03:33:00;96644.50;;;11.36;82.63
11936;BME280;6027;48.576;9.180;2023-05-01T03:35:26;96642.06;;;11.35;83.00
11936;BME280;6027;48.576;9.180;2023-05-01T03:37:51;96636.25;;;11.25;83.66
11936;BME280;6027;48.576;9.180;2023-05-01T03:40:17;96634.81;;;11.22;84.66
11936;BME280;6027;48.576;9.180;2023-05-01T03:42:43;96635.88;;;11.28;84.46
11936;BME280;6027;48.576;9.180;2023-05-01T03:45:08;96637.56;;;11.35;85.13
11936;BME280;6027;48.576;9.180;2023-05-01T03:47:34;96640.22;;;11.35;85.95
11936;BME280;6027;48.576;9.180;2023-05-01T03:50:00;96635.94;;;11.34;86.26
11936;BME280;6027;48.576;9.180;2023-05-01T03:52:26;96624.09;;;11.30;86.28
11936;BME280;6027;48.576;9.180;2023-05-01T03:54:51;96641.59;;;11.03;92.97
11936;BME280;6027;48.576;9.180;2023-05-01T03:57:17;96628.41;;;10.67;99.39
11936;BME280;6027;48.576;9.180;2023-05-01T03:59:45;96631.00;;;10.61;100.00
11936;BME280;6027;48.576;9.180;2023-05-01T04:02:10;96641.56;;;10.39;100.00
11936;BME280;6027;48.576;9.180;2023-05-01T04:04:35;96637.81;;;10.49;100.00
11936;BME280;6027;48.576;9.180;2023-05-01T04:07:01;96631.63;;;10.63;100.00
11936;BME280;6027;48.576;9.180;2023-05-01T04:09:27;96628.50;;;10.74;100.00
11936;BME280;6027;48.576;9.180;2023-05-01T04:11:54;96632.19;;;10.80;100.00
11936;BME280;6027;48.576;9.180;2023-05-01T04:14:20;96633.78;;;10.74;100.00
11936;BME280;6027;48.576;9.180;2023-05-01T04:16:45;96630.81;;;10.84;100.00
11936;BME280;6027;48.576;9.180;2023-05-01T04:19:11;96633.56;;;10.97;100.00
11936;BME280;6027;48.576;9.180;2023-05-01T04:21:36;96634.53;;;10.89;100.00
11936;BME280;6027;48.576;9.180;2023-05-01T04:24:02;96635.28;;;10.62;100.00
11936;BME280;6027;48.576;9.180;2023-05-01T04:26:27;96636.19;;;10.69;100.00
11936;BME280;6027;48.576;9.180;2023-05-01T04:28:53;96632.97;;;10.73;100.00
11936;BME280;6027;48.576;9.180;2023-05-01T04:31:18;96637.44;;;10.73;100.00
11936;BME280;6027;48.576;9.180;2023-05-01T04:33:44;96634.09;;;10.86;100.00
11936;BME280;6027;48.576;9.180;2023-05-01T04:36:10;96641.28;;;10.92;100.00
11936;BME280;6027;48.576;9.180;2023-05-01T04:38:36;96645.94;;;10.90;100.00
11936;BME280;6027;48.576;9.180;2023-05-01T04:41:01;96654.31;;;10.51;100.00
11936;BME280;6027;48.576;9.180;2023-05-01T04:43:27;96645.38;;;10.52;100.00
11936;BME280;6027;48.576;9.180;2023-05-01T04:45:53;96640.38;;;10.63;100.00
11936;BME280;6027;48.576;9.180;2023-05-01T04:48:18;96640.56;;;10.62;100.00
11936;BME280;6027;48.576;9.180;2023-05-01T04:50:44;96631.53;;;10.71;100.00
11936;BME280;6027;48.576;9.180;2023-05-01T04:53:09;96641.59;;;10.82;100.00
11936;BME280;6027;48.576;9.180;2023-05-01T04:55:35;96638.72;;;10.77;100.00
11936;BME280;6027;48.576;9.180;2023-05-01T04:58:01;96638.25;;;10.73;100.00
11936;BME280;6027;48.576;9.180;2023-05-01T05:00:29;96646.06;;;10.60;100.00
11936;BME280;6027;48.576;9.180;2023-05-01T05:02:55;96645.38;;;10.52;100.00
11936;BME280;6027;48.576;9.180;2023-05-01T05:05:20;96646.66;;;10.41;100.00
11936;BME280;6027;48.576;9.180;2023-05-01T05:10:13;96647.88;;;10.60;100.00
11936;BME280;6027;48.576;9.180;2023-05-01T05:12:48;96646.69;;;10.62;100.00
11936;BME280;6027;48.576;9.180;2023-05-01T05:15:14;96646.06;;;10.60;100.00
11936;BME280;6027;48.576;9.180;2023-05-01T05:17:40;96648.53;;;10.62;100.00
11936;BME280;6027;48.576;9.180;2023-05-01T05:20:06;96647.06;;;10.59;100.00
11936;BME280;6027;48.576;9.180;2023-05-01T05:22:35;96649.41;;;10.69;100.00
11936;BME280;6027;48.576;9.180;2023-05-01T05:25:01;96650.50;;;10.75;100.00
11936;BME280;6027;48.576;9.180;2023-05-01T05:27:28;96650.50;;;10.75;100.00
11936;BME280;6027;48.576;9.180;2023-05-01T05:29:54;96643.13;;;10.70;100.00
11936;BME280;6027;48.576;9.180;2023-05-01T05:32:19;96649.78;;;10.66;100.00
11936;BME280;6027;48.576;9.180;2023-05-01T05:34:44;96652.06;;;10.69;100.00
11936;BME280;6027;48.576;9.180;2023-05-01T05:37:10;96643.94;;;10.70;100.00
11936;BME280;6027;48.576;9.180;2023-05-01T05:39:35;96647.13;;;10.66;100.00
11936;BME280;6027;48.576;9.180;2023-05-01T05:42:01;96648.78;;;10.67;100.00
11936;BME280;6027;48.576;9.180;2023-05-01T05:44:27;96655.88;;;10.45;100.00
11936;BME280;6027;48.576;9.180;2023-05-01T05:46:53;96649.16;;;10.28;100.00
11936;BME280;6027;48.576;9.180;2023-05-01T05:49:18;96652.91;;;10.04;100.00
11936;BME280;6027;48.576;9.180;2023-05-01T05:51:44;96647.53;;;9.97;100.00
11936;BME280;6027;48.576;9.180;2023-05-01T05:54:09;96658.28;;;10.25;100.00
11936;BME280;6027;48.576;9.180;2023-05-01T05:56:35;96651.53;;;10.37;100.00
11936;BME280;6027;48.576;9.180;2023-05-01T05:59:00;96654.78;;;10.39;100.00
11936;BME280;6027;48.576;9.180;2023-05-01T06:01:28;96657.44;;;10.39;100.00
11936;BME280;6027;48.576;9.180;2023-05-01T06:03:54;96646.47;;;10.43;100.00
11936;BME280;6027;48.576;9.180;2023-05-01T06:06:19;96646.19;;;10.52;100.00
11936;BME280;6027;48.576;9.180;2023-05-01T06:08:45;96652.44;;;10.66;100.00
11936;BME280;6027;48.576;9.180;2023-05-01T06:11:11;96645.88;;;10.62;100.00
11936;BME280;6027;48.576;9.180;2023-05-01T06:13:36;96646.06;;;10.60;100.00
11936;BME280;6027;48.576;9.180;2023-05-01T06:16:02;96661.31;;;10.58;100.00
11936;BME280;6027;48.576;9.180;2023-05-01T06:18:28;96658.09;;;10.63;100.00
11936;BME280;6027;48.576;9.180;2023-05-01T06:20:54;96656.81;;;10.59;100.00
11936;BME280;6027;48.576;9.180;2023-05-01T06:23:19;96658.09;;;10.63;100.00
11936;BME280;6027;48.576;9.180;2023-05-01T06:25:45;96656.28;;;10.63;100.00
11936;BME280;6027;48.576;9.180;2023-05-01T06:28:12;96661.34;;;10.44;100.00
11936;BME280;6027;48.576;9.180;2023-05-01T06:30:38;96665.00;;;10.57;100.00
11936;BME280;6027;48.576;9.180;2023-05-01T06:33:03;96663.06;;;10.51;100.00
11936;BME280;6027;48.576;9.180;2023-05-01T06:35:29;96662.72;;;10.39;100.00
11936;BME280;6027;48.576;9.180;2023-05-01T06:37:54;96667.47;;;10.44;100.00
11936;BME280;6027;48.576;9.180;2023-05-01T06:40:20;96669.56;;;10.49;100.00
11936;BME280;6027;48.576;9.180;2023-05-01T06:42:46;96661.31;;;10.58;100.00
11936;BME280;6027;48.576;9.180;2023-05-01T06:45:11;96670.13;;;10.44;100.00
11936;BME280;6027;48.576;9.180;2023-05-01T06:47:36;96664.13;;;10.35;100.00
11936;BME280;6027;48.576;9.180;2023-05-01T06:50:02;96666.41;;;10.38;100.00
11936;BME280;6027;48.576;9.180;2023-05-01T06:52:29;96669.31;;;10.29;100.00
11936;BME280;6027;48.576;9.180;2023-05-01T06:54:55;96670.78;;;10.31;100.00
11936;BME280;6027;48.576;9.180;2023-05-01T06:57:20;96671.25;;;10.35;100.00
11936;BME280;6027;48.576;9.180;2023-05-01T06:59:46;96681.25;;;10.39;100.00
11936;BME280;6027;48.576;9.180;2023-05-01T07:02:11;96675.34;;;10.37;100.00
11936;BME280;6027;48.576;9.180;2023-05-01T07:04:37;96680.25;;;10.41;100.00
11936;BME280;6027;48.576;9.180;2023-05-01T07:07:02;96677.31;;;10.50;100.00
11936;BME280;6027;48.576;9.180;2023-05-01T07:09:27;96679.69;;;10.45;100.00
11936;BME280;6027;48.576;9.180;2023-05-01T07:11:53;96675.69;;;10.49;100.00
11936;BME280;6027;48.576;9.180;2023-05-01T07:14:21;96682.38;;;10.30;100.00
11936;BME280;6027;48.576;9.180;2023-05-01T07:16:46;96684.94;;;10.38;100.00
11936;BME280;6027;48.576;9.180;2023-05-01T07:19:12;96685.56;;;10.11;100.00
11936;BME280;6027;48.576;9.180;2023-05-01T07:21:40;96680.19;;;10.04;100.00
11936;BME280;6027;48.576;9.180;2023-05-01T07:24:05;96675.63;;;10.13;100.00
11936;BME280;6027;48.576;9.180;2023-05-01T07:26:31;96683.75;;;10.26;100.00
11936;BME280;6027;48.576;9.180;2023-05-01T07:28:56;96675.75;;;10.20;100.00
11936;BME280;6027;48.576;9.180;2023-05-01T07:31:21;96680.88;;;10.43;100.00
11936;BME280;6027;48.576;9.180;2023-05-01T07:33:47;96667.72;;;10.49;100.00
11936;BME280;6027;48.576;9.180;2023-05-01T07:36:13;96672.78;;;10.29;100.00
11936;BME280;6027;48.576;9.180;2023-05-01T07:38:38;96666.41;;;10.38;100.00
11936;BME280;6027;48.576;9.180;2023-05-01T07:41:04;96667.00;;;10.55;100.00
11936;BME280;6027;48.576;9.180;2023-05-01T07:43:30;96669.97;;;10.67;100.00
11936;BME280;6027;48.576;9.180;2023-05-01T07:45:59;96671.00;;;10.87;100.00
11936;BME280;6027;48.576;9.180;2023-05-01T07:48:27;96664.75;;;10.73;100.00
11936;BME280;6027;48.576;9.180;2023-05-01T07:50:53;96672.75;;;10.80;100.00
11936;BME280;6027;48.576;9.180;2023-05-01T07:53:19;96679.94;;;10.86;100.00
11936;BME280;6027;48.576;9.180;2023-05-01T07:55:45;96674.56;;;10.80;100.00
11936;BME280;6027;48.576;9.180;2023-05-01T07:58:10;96668.91;;;10.83;100.00
11936;BME280;6027;48.576;9.180;2023-05-01T08:00:36;96666.44;;;10.81;100.00
11936;BME280;6027;48.576;9.180;2023-05-01T08:03:01;96675.47;;;10.87;100.00
11936;BME280;6027;48.576;9.180;2023-05-01T08:05:27;96658.81;;;10.93;100.00
11936;BME280;6027;48.576;9.180;2023-05-01T08:07:52;96659.66;;;10.93;100.00
11936;BME280;6027;48.576;9.180;2023-05-01T08:10:18;96667.25;;;10.82;100.00
11936;BME280;6027;48.576;9.180;2023-05-01T08:12:43;96668.63;;;10.99;100.00
11936;BME280;6027;48.576;9.180;2023-05-01T08:15:08;96668.53;;;11.07;100.00
11936;BME280;6027;48.576;9.180;2023-05-01T08:17:35;96672.81;;;11.08;100.00
11936;BME280;6027;48.576;9.180;2023-05-01T08:20:01;96671.25;;;11.14;100.00
11936;BME280;6027;48.576;9.180;2023-05-01T08:22:26;96672.47;;;11.18;100.00
11936;BME280;6027;48.576;9.180;2023-05-01T08:24:52;96670.25;;;11.15;100.00
11936;BME280;6027;48.576;9.180;2023-05-01T08:27:17;96668.59;;;11.14;100.00
11936;BME280;6027;48.576;9.180;2023-05-01T08:29:43;96670.47;;;11.20;100.00
11936;BME280;6027;48.576;9.180;2023-05-01T08:32:08;96671.53;;;11.25;100.00
11936;BME280;6027;48.576;9.180;2023-05-01T08:34:34;96659.81;;;11.34;100.00
11936;BME280;6027;48.576;9.180;2023-05-01T08:37:00;96664.31;;;11.40;100.00
11936;BME280;6027;48.576;9.180;2023-05-01T08:39:26;96664.00;;;11.50;100.00
11936;BME280;6027;48.576;9.180;2023-05-01T08:41:52;96664.72;;;11.65;100.00
11936;BME280;6027;48.576;9.180;2023-05-01T08:46:46;96666.03;;;11.55;100.00
11936;BME280;6027;48.576;9.180;2023-05-01T08:49:14;96659.72;;;11.56;100.00
11936;BME280;6027;48.576;9.180;2023-05-01T08:51:42;96665.34;;;11.67;100.00
11936;BME280;6027;48.576;9.180;2023-05-01T08:54:10;96672.63;;;11.87;100.00
11936;BME280;6027;48.576;9.180;2023-05-01T08:56:36;96671.22;;;11.91;100.00
11936;BME280;6027;48.576;9.180;2023-05-01T08:59:03;96670.22;;;11.92;100.00
11936;BME280;6027;48.576;9.180;2023-05-01T09:01:31;96667.72;;;11.84;100.00
11936;BME280;6027;48.576;9.180;2023-05-01T09:03:58;96671.63;;;11.94;100.00
11936;BME280;6027;48.576;9.180;2023-05-01T09:06:27;96665.16;;;12.03;100.00
11936;BME280;6027;48.576;9.180;2023-05-01T09:08:53;96663.53;;;12.02;100.00
11936;BME280;6027;48.576;9.180;2023-05-01T09:11:21;96668.88;;;12.16;100.00
11936;BME280;6027;48.576;9.180;2023-05-01T09:13:46;96658.31;;;12.22;100.00
11936;BME280;6027;48.576;9.180;2023-05-01T09:16:12;96664.28;;;12.37;100.00
11936;BME280;6027;48.576;9.180;2023-05-01T09:18:38;96663.31;;;12.52;100.00
11936;BME280;6027;48.576;9.180;2023-05-01T09:21:05;96662.13;;;12.61;100.00
11936;BME280;6027;48.576;9.180;2023-05-01T09:23:30;96656.06;;;12.80;100.00
11936;BME280;6027;48.576;9.180;2023-05-01T09:25:58;96657.06;;;12.79;100.00
11936;BME280;6027;48.576;9.180;2023-05-01T09:28:43;96663.44;;;12.98;100.00
11936;BME280;6027;48.576;9.180;2023-05-01T09:31:25;96658.72;;;12.93;100.00
11936;BME280;6027;48.576;9.180;2023-05-01T09:33:57;96657.53;;;13.02;100.00
11936;BME280;6027;48.576;9.180;2023-05-01T09:36:25;96661.22;;;13.08;100.00
11936;BME280;6027;48.576;9.180;2023-05-01T09:38:51;96657.34;;;13.17;100.00
11936;BME280;6027;48.576;9.180;2023-05-01T09:41:19;96658.56;;;13.28;100.00
11936;BME280;6027;48.576;9.180;2023-05-01T09:43:51;96656.34;;;13.44;100.00
11936;BME280;6027;48.576;9.180;2023-05-01T09:46:17;96652.03;;;13.63;100.00
11936;BME280;6027;48.576;9.180;2023-05-01T09:48:57;96646.47;;;13.71;100.00
11936;BME280;6027;48.576;9.180;2023-05-01T09:51:30;96648.53;;;13.76;100.00
11936;BME280;6027;48.576;9.180;2023-05-01T09:54:01;96650.38;;;13.69;100.00
11936;BME280;6027;48.576;9.180;2023-05-01T09:56:29;96642.78;;;13.72;100.00
11936;BME280;6027;48.576;9.180;2023-05-01T09:58:57;96645.66;;;13.77;100.00
11936;BME280;6027;48.576;9.180;2023-05-01T10:01:43;96649.13;;;13.85;100.00
11936;BME280;6027;48.576;9.180;2023-05-01T10:04:10;96637.84;;;14.02;100.00
11936;BME280;6027;48.576;9.180;2023-05-01T10:06:38;96639.84;;;14.07;100.00
11936;BME280;6027;48.576;9.180;2023-05-01T10:09:04;96645.75;;;14.22;100.00
11936;BME280;6027;48.576;9.180;2023-05-01T10:11:52;96644.06;;;14.34;100.00
11936;BME280;6027;48.576;9.180;2023-05-01T10:14:19;96637.09;;;14.33;100.00
11936;BME280;6027;48.576;9.180;2023-05-01T10:16:46;96632.16;;;14.43;100.00
11936;BME280;6027;48.576;9.180;2023-05-01T10:19:11;96637.91;;;14.34;100.00
11936;BME280;6027;48.576;9.180;2023-05-01T10:21:37;96637.72;;;14.42;100.00
11936;BME280;6027;48.576;9.180;2023-05-01T10:24:03;96643.88;;;14.42;100.00
11936;BME280;6027;48.576;9.180;2023-05-01T10:26:34;96645.63;;;14.55;100.00
11936;BME280;6027;48.576;9.180;2023-05-01T10:29:00;96651.34;;;14.59;100.00
11936;BME280;6027;48.576;9.180;2023-05-01T10:31:27;96644.81;;;14.55;100.00
11936;BME280;6027;48.576;9.180;2023-05-01T10:33:54;96649.53;;;14.52;100.00
11936;BME280;6027;48.576;9.180;2023-05-01T10:36:39;96644.41;;;14.58;100.00
11936;BME280;6027;48.576;9.180;2023-05-01T10:39:31;96641.34;;;14.54;100.00
11936;BME280;6027;48.576;9.180;2023-05-01T10:44:26;96644.22;;;14.46;100.00
11936;BME280;6027;48.576;9.180;2023-05-01T10:46:53;96643.19;;;14.47;100.00
11936;BME280;6027;48.576;9.180;2023-05-01T10:49:18;96645.03;;;14.46;100.00
11936;BME280;6027;48.576;9.180;2023-05-01T10:54:26;96635.97;;;14.61;100.00
11936;BME280;6027;48.576;9.180;2023-05-01T10:56:54;96637.63;;;14.62;98.86
11936;BME280;6027;48.576;9.180;2023-05-01T10:59:20;96636.19;;;14.59;97.35
11936;BME280;6027;48.576;9.180;2023-05-01T11:01:47;96637.84;;;14.54;100.00
11936;BME280;6027;48.576;9.180;2023-05-01T11:09:43;96639.75;;;14.33;99.40
11936;BME280;6027;48.576;9.180;2023-05-01T11:12:11;96632.00;;;14.25;100.00
11936;BME280;6027;48.576;9.180;2023-05-01T11:20:04;96639.00;;;14.20;100.00
11936;BME280;6027;48.576;9.180;2023-05-01T11:22:34;96637.16;;;14.13;100.00
11936;BME280;6027;48.576;9.180;2023-05-01T11:25:03;96635.16;;;14.02;100.00
11936;BME280;6027;48.576;9.180;2023-05-01T11:27:30;96637.03;;;13.95;100.00
11936;BME280;6027;48.576;9.180;2023-05-01T11:29:57;96635.81;;;13.91;100.00
11936;BME280;6027;48.576;9.180;2023-05-01T11:32:26;96638.28;;;13.73;100.00
11936;BME280;6027;48.576;9.180;2023-05-01T11:34:52;96632.97;;;13.66;100.00
11936;BME280;6027;48.576;9.180;2023-05-01T11:37:19;96639.34;;;13.65;100.00
11936;BME280;6027;48.576;9.180;2023-05-01T11:39:49;96635.06;;;13.64;100.00
11936;BME280;6027;48.576;9.180;2023-05-01T11:42:15;96632.41;;;13.64;100.00
11936;BME280;6027;48.576;9.180;2023-05-01T11:44:40;96628.69;;;13.72;100.00
11936;BME280;6027;48.576;9.180;2023-05-01T11:47:06;96631.75;;;13.75;100.00
11936;BME280;6027;48.576;9.180;2023-05-01T11:49:34;96627.84;;;13.71;100.00
11936;BME280;6027;48.576;9.180;2023-05-01T11:52:00;96632.97;;;13.79;100.00
11936;BME280;6027;48.576;9.180;2023-05-01T11:54:25;96631.13;;;13.80;100.00
11936;BME280;6027;48.576;9.180;2023-05-01T11:56:58;96630.88;;;13.88;100.00
11936;BME280;6027;48.576;9.180;2023-05-01T11:59:26;96624.31;;;14.04;100.00
11936;BME280;6027;48.576;9.180;2023-05-01T12:01:52;96628.16;;;14.14;100.00
11936;BME280;6027;48.576;9.180;2023-05-01T12:04:23;96623.44;;;14.10;100.00
11936;BME280;6027;48.576;9.180;2023-05-01T12:06:49;96626.91;;;14.17;100.00
11936;BME280;6027;48.576;9.180;2023-05-01T12:09:16;96620.09;;;14.34;100.00
11936;BME280;6027;48.576;9.180;2023-05-01T12:11:43;96621.28;;;14.45;100.00
11936;BME280;6027;48.576;9.180;2023-05-01T12:14:09;96623.50;;;14.55;100.00
11936;BME280;6027;48.576;9.180;2023-05-01T12:16:36;96616.44;;;14.73;100.00
11936;BME280;6027;48.576;9.180;2023-05-01T12:19:05;96622.38;;;14.75;100.00
11936;BME280;6027;48.576;9.180;2023-05-01T12:24:17;96618.78;;;14.88;100.00
11936;BME280;6027;48.576;9.180;2023-05-01T12:26:44;96612.44;;;14.89;99.41
11936;BME280;6027;48.576;9.180;2023-05-01T12:29:10;96613.63;;;14.93;99.03
11936;BME280;6027;48.576;9.180;2023-05-01T12:31:45;96617.16;;;15.18;99.12
11936;BME280;6027;48.576;9.180;2023-05-01T12:34:11;96611.47;;;15.33;96.08
11936;BME280;6027;48.576;9.180;2023-05-01T12:36:37;96602.91;;;15.49;90.66
11936;BME280;6027;48.576;9.180;2023-05-01T12:39:07;96609.88;;;15.57;91.03
11936;BME280;6027;48.576;9.180;2023-05-01T12:44:23;96597.56;;;15.74;90.75
11936;BME280;6027;48.576;9.180;2023-05-01T12:46:58;96601.44;;;15.97;90.36
11936;BME280;6027;48.576;9.180;2023-05-01T12:49:24;96607.66;;;16.09;85.34
11936;BME280;6027;48.576;9.180;2023-05-01T12:51:52;96595.41;;;16.19;83.32
11936;BME280;6027;48.576;9.180;2023-05-01T12:54:22;96598.63;;;16.10;84.80
11936;BME280;6027;48.576;9.180;2023-05-01T12:56:49;96600.25;;;16.11;84.36
11936;BME280;6027;48.576;9.180;2023-05-01T12:59:25;96602.69;;;16.12;81.47
11936;BME280;6027;48.576;9.180;2023-05-01T13:02:02;96585.03;;;16.30;81.12
11936;BME280;6027;48.576;9.180;2023-05-01T13:04:28;96588.56;;;16.42;81.27
11936;BME280;6027;48.576;9.180;2023-05-01T13:06:55;96565.81;;;16.03;78.54
11936;BME280;6027;48.576;9.180;2023-05-01T13:09:25;96577.97;;;16.35;84.07
11936;BME280;6027;48.576;9.180;2023-05-01T13:12:01;96564.84;;;16.34;88.74
11936;BME280;6027;48.576;9.180;2023-05-01T13:14:35;96569.03;;;16.41;75.87
11936;BME280;6027;48.576;9.180;2023-05-01T13:17:02;96573.63;;;16.52;74.92
11936;BME280;6027;48.576;9.180;2023-05-01T13:19:27;96568.06;;;16.54;75.32
11936;BME280;6027;48.576;9.180;2023-05-01T13:21:55;96565.50;;;16.59;75.70
11936;BME280;6027;48.576;9.180;2023-05-01T13:24:21;96564.56;;;16.53;78.19
11936;BME280;6027;48.576;9.180;2023-05-01T13:26:47;96561.69;;;16.37;75.98
11936;BME280;6027;48.576;9.180;2023-05-01T13:29:20;96575.75;;;16.32;74.75
11936;BME280;6027;48.576;9.180;2023-05-01T13:31:47;96567.13;;;16.30;76.28
11936;BME280;6027;48.576;9.180;2023-05-01T13:34:16;96566.53;;;16.28;76.51
11936;BME280;6027;48.576;9.180;2023-05-01T13:36:45;96575.06;;;16.18;79.06
11936;BME280;6027;48.576;9.180;2023-05-01T13:39:17;96578.88;;;16.11;81.86
11936;BME280;6027;48.576;9.180;2023-05-01T13:41:43;96595.94;;;15.92;86.38
11936;BME280;6027;48.576;9.180;2023-05-01T13:44:09;96606.91;;;15.83;88.86
11936;BME280;6027;48.576;9.180;2023-05-01T13:46:34;96617.91;;;15.75;92.56
11936;BME280;6027;48.576;9.180;2023-05-01T13:49:02;96624.69;;;15.46;100.00